createdAt,value
2022-11-29T00:01:01.161Z,8.40
2022-11-29T00:03:28.934Z,8.40
2022-11-29T00:05:56.222Z,8.40
2022-11-29T00:08:24.177Z,8.40
2022-11-29T00:10:51.114Z,8.40
2022-11-29T00:13:18.285Z,8.40
2022-11-29T00:15:45.086Z,8.40
2022-11-29T00:18:11.886Z,8.40
2022-11-29T00:20:39.620Z,8.40
2022-11-29T00:23:06.817Z,8.40
2022-11-29T00:25:33.602Z,8.50
2022-11-29T00:28:00.426Z,8.40
2022-11-29T00:30:28.168Z,8.40
2022-11-29T00:32:55.050Z,8.40
2022-11-29T00:35:22.114Z,8.50
2022-11-29T00:37:48.888Z,8.40
2022-11-29T00:40:15.773Z,8.40
2022-11-29T00:42:42.554Z,8.40
2022-11-29T00:45:09.811Z,8.40
2022-11-29T00:47:37.338Z,8.40
2022-11-29T00:50:05.182Z,8.40
2022-11-29T00:52:32.022Z,8.40
2022-11-29T00:54:58.850Z,8.40
2022-11-29T00:57:25.654Z,8.40
2022-11-29T00:59:52.407Z,8.40
2022-11-29T01:02:19.264Z,8.40
2022-11-29T01:04:46.316Z,8.40
2022-11-29T01:07:13.372Z,8.30
2022-11-29T01:09:40.296Z,8.40
2022-11-29T01:12:07.286Z,8.40
2022-11-29T01:14:34.110Z,8.40
2022-11-29T01:17:01.089Z,8.50
2022-11-29T01:19:27.966Z,8.40
2022-11-29T01:21:54.707Z,8.30
2022-11-29T01:24:22.322Z,8.40
2022-11-29T01:26:49.059Z,8.40
2022-11-29T01:29:15.958Z,8.40
2022-11-29T01:31:42.844Z,8.40
2022-11-29T01:34:10.765Z,8.40
2022-11-29T01:36:37.666Z,8.30
2022-11-29T01:39:05.524Z,8.40
2022-11-29T01:41:35.015Z,8.30
2022-11-29T01:44:04.957Z,8.30
2022-11-29T01:46:37.322Z,8.30
2022-11-29T01:49:11.108Z,8.30
2022-11-29T01:51:40.433Z,8.30
2022-11-29T01:54:09.080Z,8.30
2022-11-29T01:56:37.721Z,8.40
2022-11-29T01:59:09.046Z,8.40
2022-11-29T02:01:37.378Z,8.40
2022-11-29T02:04:05.926Z,8.40
2022-11-29T02:06:34.283Z,8.30
2022-11-29T02:09:01.101Z,8.40
2022-11-29T02:11:39.911Z,8.30
2022-11-29T02:14:25.778Z,8.30
2022-11-29T02:16:56.811Z,8.30
2022-11-29T02:20:08.577Z,8.20
2022-11-29T02:22:46.738Z,8.30
2022-11-29T02:25:25.809Z,8.30
2022-11-29T02:27:52.633Z,8.40
2022-11-29T02:31:05.422Z,8.30
2022-11-29T02:34:07.402Z,8.30
2022-11-29T02:37:03.269Z,8.30
2022-11-29T02:39:50.179Z,8.30
2022-11-29T02:42:56.258Z,8.30
2022-11-29T02:45:45.213Z,8.30
2022-11-29T02:48:20.872Z,8.30
2022-11-29T02:50:58.684Z,8.30
2022-11-29T02:53:35.431Z,8.30
2022-11-29T02:56:15.357Z,8.30
2022-11-29T02:59:05.697Z,8.30
2022-11-29T03:01:57.892Z,8.30
2022-11-29T03:04:36.192Z,8.30
2022-11-29T03:07:09.158Z,8.30
2022-11-29T03:09:49.167Z,8.30
2022-11-29T03:12:31.077Z,8.30
2022-11-29T03:15:20.237Z,8.30
2022-11-29T03:18:17.946Z,8.30
2022-11-29T03:21:03.536Z,8.30
2022-11-29T03:23:47.697Z,8.30
2022-11-29T03:26:31.920Z,8.30
2022-11-29T03:29:20.098Z,8.30
2022-11-29T03:32:01.931Z,8.30
2022-11-29T03:34:56.934Z,8.30
2022-11-29T03:37:44.010Z,8.30
2022-11-29T03:40:15.072Z,8.30
2022-11-29T03:43:02.184Z,8.30
2022-11-29T03:45:52.001Z,8.30
2022-11-29T03:48:35.246Z,8.30
2022-11-29T03:51:11.268Z,8.30
2022-11-29T03:53:56.887Z,8.30
2022-11-29T03:56:39.664Z,8.30
2022-11-29T03:59:09.482Z,8.20
2022-11-29T04:02:17.565Z,8.20
2022-11-29T04:04:44.603Z,8.20
2022-11-29T04:07:43.575Z,8.30
2022-11-29T04:10:29.318Z,8.20
2022-11-29T04:13:35.462Z,8.20
2022-11-29T04:16:11.276Z,8.30
2022-11-29T04:18:38.175Z,8.20
2022-11-29T04:21:30.513Z,8.20
2022-11-29T04:24:06.422Z,8.20
2022-11-29T04:26:53.659Z,8.20
2022-11-29T04:29:35.385Z,8.10
2022-11-29T04:32:17.299Z,8.10
2022-11-29T04:34:50.152Z,8.10
2022-11-29T04:37:50.339Z,8.10
2022-11-29T04:40:26.293Z,8.00
2022-11-29T04:43:08.165Z,8.00
2022-11-29T04:46:12.211Z,8.00
2022-11-29T04:49:09.432Z,7.90
2022-11-29T04:51:55.905Z,7.90
2022-11-29T04:54:51.677Z,7.90
2022-11-29T04:57:27.286Z,7.80
2022-11-29T05:00:16.932Z,7.80
2022-11-29T05:02:59.545Z,7.80
2022-11-29T05:06:04.400Z,7.80
2022-11-29T05:09:09.481Z,7.80
2022-11-29T05:11:48.278Z,7.80
2022-11-29T05:14:33.584Z,7.70
2022-11-29T05:17:33.358Z,7.70
2022-11-29T05:20:09.373Z,7.70
2022-11-29T05:22:53.946Z,7.70
2022-11-29T05:25:35.692Z,7.70
2022-11-29T05:28:11.295Z,7.70
2022-11-29T05:31:08.436Z,7.70
2022-11-29T05:33:44.736Z,7.70
2022-11-29T05:36:49.470Z,7.70
2022-11-29T05:39:34.363Z,7.70
2022-11-29T05:42:24.015Z,7.70
2022-11-29T05:45:24.798Z,7.70
2022-11-29T05:48:10.079Z,7.70
2022-11-29T05:50:48.334Z,7.70
2022-11-29T05:54:04.916Z,7.80
2022-11-29T05:56:46.461Z,7.70
2022-11-29T05:59:20.306Z,7.70
2022-11-29T06:02:19.370Z,7.70
2022-11-29T06:04:55.355Z,7.70
2022-11-29T06:07:44.599Z,7.70
2022-11-29T06:10:13.052Z,7.70
2022-11-29T06:12:42.567Z,7.70
2022-11-29T06:15:27.982Z,7.80
2022-11-29T06:18:15.171Z,7.70
2022-11-29T06:21:06.929Z,7.70
2022-11-29T06:24:01.254Z,7.70
2022-11-29T06:27:03.786Z,7.70
2022-11-29T06:29:56.664Z,7.70
2022-11-29T06:32:46.062Z,7.70
2022-11-29T06:35:32.926Z,7.70
2022-11-29T06:38:24.806Z,7.70
2022-11-29T06:40:56.041Z,7.70
2022-11-29T06:43:27.279Z,7.70
2022-11-29T06:46:05.738Z,7.70
2022-11-29T06:48:40.248Z,7.70
2022-11-29T06:51:24.183Z,7.70
2022-11-29T06:54:04.535Z,7.70
2022-11-29T06:57:15.629Z,7.70
2022-11-29T07:00:02.017Z,7.70
2022-11-29T07:02:38.627Z,7.70
2022-11-29T07:05:28.910Z,7.70
2022-11-29T07:08:00.624Z,7.70
2022-11-29T07:10:29.155Z,7.70
2022-11-29T07:12:56.348Z,7.70
2022-11-29T07:15:24.026Z,7.70
2022-11-29T07:18:10.825Z,7.70
2022-11-29T07:20:53.380Z,7.70
2022-11-29T07:23:48.499Z,7.70
2022-11-29T07:26:24.836Z,7.70
2022-11-29T07:29:08.159Z,7.70
2022-11-29T07:32:01.998Z,7.80
2022-11-29T07:34:34.754Z,7.70
2022-11-29T07:37:22.697Z,7.70
2022-11-29T07:40:02.554Z,7.70
2022-11-29T07:42:53.689Z,7.70
2022-11-29T07:45:34.229Z,7.70
2022-11-29T07:48:01.046Z,7.70
2022-11-29T07:50:29.309Z,7.70
2022-11-29T07:52:56.588Z,7.70
2022-11-29T07:55:26.223Z,7.70
2022-11-29T07:57:53.437Z,7.70
2022-11-29T08:00:21.384Z,7.70
2022-11-29T08:02:49.539Z,7.70
2022-11-29T08:05:16.597Z,7.70
2022-11-29T08:07:43.505Z,7.70
2022-11-29T08:10:14.093Z,7.70
2022-11-29T08:12:47.464Z,7.70
2022-11-29T08:15:14.965Z,7.70
2022-11-29T08:17:41.804Z,7.80
2022-11-29T08:20:10.551Z,7.70
2022-11-29T08:22:37.743Z,7.70
2022-11-29T08:25:06.100Z,7.70
2022-11-29T08:27:33.304Z,7.70
2022-11-29T08:30:00.191Z,7.70
2022-11-29T08:32:27.704Z,7.70
2022-11-29T08:34:54.669Z,7.70
2022-11-29T08:37:21.532Z,7.70
2022-11-29T08:39:48.392Z,7.70
2022-11-29T08:42:15.180Z,7.80
2022-11-29T08:44:42.038Z,7.90
2022-11-29T08:47:29.008Z,7.70
2022-11-29T08:50:01.623Z,7.70
2022-11-29T08:52:52.541Z,7.70
2022-11-29T08:55:21.157Z,7.70
2022-11-29T08:57:49.710Z,7.70
2022-11-29T09:00:18.252Z,7.70
2022-11-29T09:02:45.164Z,7.70
2022-11-29T09:05:12.217Z,7.80
2022-11-29T09:07:39.385Z,7.70
2022-11-29T09:10:08.469Z,7.70
2022-11-29T09:12:40.195Z,7.80
2022-11-29T09:15:09.304Z,7.70
2022-11-29T09:17:36.280Z,7.70
2022-11-29T09:20:04.600Z,7.80
2022-11-29T09:22:31.539Z,7.80
2022-11-29T09:24:58.378Z,7.70
2022-11-29T09:27:25.245Z,7.80
2022-11-29T09:29:52.054Z,7.80
2022-11-29T09:32:18.856Z,7.80
2022-11-29T09:34:46.191Z,7.70
2022-11-29T09:37:13.135Z,7.80
2022-11-29T09:39:41.495Z,7.80
2022-11-29T09:42:33.108Z,7.80
2022-11-29T09:45:24.335Z,7.90
2022-11-29T09:48:31.093Z,8.00
2022-11-29T09:51:09.610Z,7.90
2022-11-29T09:53:56.630Z,7.90
2022-11-29T09:56:44.988Z,8.00
2022-11-29T09:59:28.300Z,8.10
2022-11-29T10:02:03.308Z,8.00
2022-11-29T10:04:36.215Z,8.00
2022-11-29T10:07:08.932Z,8.10
2022-11-29T10:09:46.026Z,8.30
2022-11-29T10:12:31.800Z,8.20
2022-11-29T10:15:16.906Z,8.10
2022-11-29T10:18:15.914Z,8.20
2022-11-29T10:20:49.052Z,8.20
2022-11-29T10:23:47.698Z,8.20
2022-11-29T10:26:14.726Z,8.20
2022-11-29T10:28:48.723Z,8.20
2022-11-29T10:31:25.099Z,8.20
2022-11-29T10:33:52.042Z,8.20
2022-11-29T10:36:18.917Z,8.20
2022-11-29T10:38:47.360Z,8.30
2022-11-29T10:41:19.736Z,8.30
2022-11-29T10:43:47.455Z,8.20
2022-11-29T10:46:36.640Z,8.20
2022-11-29T10:49:06.771Z,8.30
2022-11-29T10:51:34.807Z,8.30
2022-11-29T10:54:22.486Z,8.30
2022-11-29T10:56:49.704Z,8.40
2022-11-29T10:59:22.901Z,8.40
2022-11-29T11:01:50.556Z,8.40
2022-11-29T11:04:33.604Z,8.40
2022-11-29T11:07:02.890Z,8.50
2022-11-29T11:09:33.594Z,8.50
2022-11-29T11:12:03.954Z,8.50
2022-11-29T11:14:39.853Z,8.50
2022-11-29T11:17:26.555Z,8.50
2022-11-29T11:20:01.019Z,8.50
2022-11-29T11:22:29.625Z,8.60
2022-11-29T11:25:03.279Z,8.60
2022-11-29T11:27:40.140Z,8.60
2022-11-29T11:30:20.309Z,8.60
2022-11-29T11:33:19.235Z,8.60
2022-11-29T11:36:19.439Z,8.70
2022-11-29T11:38:54.092Z,8.70
2022-11-29T11:41:46.908Z,8.80
2022-11-29T11:44:48.415Z,8.80
2022-11-29T11:47:20.594Z,8.70
2022-11-29T11:50:03.645Z,8.70
2022-11-29T11:52:40.043Z,8.70
2022-11-29T11:55:30.893Z,8.70
2022-11-29T11:58:09.857Z,8.70
2022-11-29T12:01:04.968Z,8.70
2022-11-29T12:03:58.756Z,8.70
2022-11-29T12:06:52.294Z,8.70
2022-11-29T12:09:19.383Z,8.70
2022-11-29T12:12:17.039Z,8.70
2022-11-29T12:14:57.557Z,8.70
2022-11-29T12:17:41.487Z,8.70
2022-11-29T12:20:24.483Z,8.70
2022-11-29T12:23:03.449Z,8.70
2022-11-29T12:25:40.118Z,8.70
2022-11-29T12:28:20.402Z,8.70
2022-11-29T12:30:59.795Z,8.70
2022-11-29T12:33:40.007Z,8.70
2022-11-29T12:36:19.192Z,8.70
2022-11-29T12:39:12.427Z,8.70
2022-11-29T12:41:53.799Z,8.70
2022-11-29T12:44:37.172Z,8.70
2022-11-29T12:47:37.234Z,8.70
2022-11-29T12:50:42.091Z,8.70
2022-11-29T12:53:27.256Z,8.60
2022-11-29T12:56:05.603Z,8.70
2022-11-29T12:58:46.443Z,8.60
2022-11-29T13:01:35.100Z,8.70
2022-11-29T13:04:39.463Z,8.70
2022-11-29T13:07:18.119Z,8.70
2022-11-29T13:10:18.811Z,8.70
2022-11-29T13:12:56.038Z,8.70
2022-11-29T13:15:38.089Z,8.70
2022-11-29T13:18:13.846Z,8.70
2022-11-29T13:21:04.506Z,8.70
2022-11-29T13:24:06.932Z,8.70
2022-11-29T13:26:27.076Z,8.70
2022-11-29T13:28:54.580Z,8.70
2022-11-29T13:31:23.583Z,8.70
2022-11-29T13:34:08.715Z,8.70
2022-11-29T13:36:47.793Z,8.70
2022-11-29T13:39:39.461Z,8.80
2022-11-29T13:42:24.379Z,8.70
2022-11-29T13:45:07.936Z,8.80
2022-11-29T13:47:48.538Z,8.80
2022-11-29T13:50:37.367Z,8.80
2022-11-29T13:53:17.826Z,8.80
2022-11-29T13:56:00.084Z,8.80
2022-11-29T13:58:30.798Z,8.90
2022-11-29T14:01:09.740Z,8.90
2022-11-29T14:03:38.850Z,8.90
2022-11-29T14:06:10.801Z,8.90
2022-11-29T14:11:42.971Z,8.90
2022-11-29T14:14:22.717Z,8.90
2022-11-29T14:16:52.493Z,8.90
2022-11-29T14:19:30.102Z,9.00
2022-11-29T14:22:02.771Z,9.00
2022-11-29T14:24:32.479Z,8.90
2022-11-29T14:27:19.509Z,8.90
2022-11-29T14:29:49.582Z,8.80
2022-11-29T14:32:42.875Z,8.80
2022-11-29T14:35:12.922Z,8.80
2022-11-29T14:37:51.769Z,8.90
2022-11-29T14:40:33.632Z,8.80
2022-11-29T14:43:02.398Z,8.80
2022-11-29T14:45:32.640Z,8.80
2022-11-29T14:48:00.376Z,8.80
2022-11-29T14:50:37.509Z,8.80
2022-11-29T14:53:06.601Z,8.80
2022-11-29T14:55:36.758Z,8.90
2022-11-29T14:58:06.048Z,8.80
2022-11-29T15:00:32.950Z,8.80
2022-11-29T15:03:10.776Z,8.70
2022-11-29T15:05:44.700Z,8.70
2022-11-29T15:08:27.031Z,8.70
2022-11-29T15:10:59.360Z,8.70
2022-11-29T15:13:31.927Z,8.60
2022-11-29T15:16:21.167Z,8.70
2022-11-29T15:19:13.239Z,8.60
2022-11-29T15:22:20.561Z,8.60
2022-11-29T15:24:59.772Z,8.60
2022-11-29T15:27:26.829Z,8.60
2022-11-29T15:29:53.933Z,8.50
2022-11-29T15:32:23.114Z,8.50
2022-11-29T15:34:53.336Z,8.50
2022-11-29T15:37:24.455Z,8.50
2022-11-29T15:40:14.781Z,8.50
2022-11-29T15:42:49.447Z,8.40
2022-11-29T15:45:25.111Z,8.40
2022-11-29T15:48:03.072Z,8.40
2022-11-29T15:50:33.398Z,8.30
2022-11-29T15:53:05.681Z,8.20
2022-11-29T15:55:33.760Z,8.20
2022-11-29T15:58:08.533Z,8.30
2022-11-29T16:00:36.735Z,8.20
2022-11-29T16:03:05.609Z,8.10
2022-11-29T16:05:38.327Z,8.10
2022-11-29T16:08:14.365Z,8.10
2022-11-29T16:10:52.965Z,8.10
2022-11-29T16:13:25.905Z,8.00
2022-11-29T16:16:06.488Z,8.20
2022-11-29T16:18:34.451Z,8.10
2022-11-29T16:21:04.558Z,8.00
2022-11-29T16:23:43.409Z,8.00
2022-11-29T16:26:19.914Z,7.90
2022-11-29T16:28:49.816Z,7.90
2022-11-29T16:31:30.536Z,7.90
2022-11-29T16:33:57.926Z,7.80
2022-11-29T16:36:28.951Z,7.80
2022-11-29T16:39:16.917Z,7.80
2022-11-29T16:41:44.135Z,7.80
2022-11-29T16:44:45.848Z,7.70
2022-11-29T16:47:17.638Z,7.70
2022-11-29T16:49:44.695Z,7.60
2022-11-29T16:52:32.788Z,7.60
2022-11-29T16:55:00.237Z,7.60
2022-11-29T16:57:28.775Z,7.70
2022-11-29T16:59:55.674Z,7.60
2022-11-29T17:02:22.894Z,7.60
2022-11-29T17:04:52.865Z,7.50
2022-11-29T17:07:32.161Z,7.60
2022-11-29T17:09:59.940Z,7.60
2022-11-29T17:12:26.929Z,7.60
2022-11-29T17:14:53.788Z,7.50
2022-11-29T17:17:20.733Z,7.60
2022-11-29T17:19:47.755Z,7.50
2022-11-29T17:22:14.556Z,7.50
2022-11-29T17:24:46.404Z,7.50
2022-11-29T17:27:14.714Z,7.50
2022-11-29T17:29:41.694Z,7.40
2022-11-29T17:32:08.647Z,7.50
2022-11-29T17:34:35.653Z,7.50
2022-11-29T17:37:02.609Z,7.50
2022-11-29T17:39:31.276Z,7.50
2022-11-29T17:41:58.207Z,7.50
2022-11-29T17:44:25.077Z,7.60
2022-11-29T17:46:51.949Z,7.40
2022-11-29T17:49:18.908Z,7.50
2022-11-29T17:51:53.918Z,7.50
2022-11-29T17:54:22.300Z,7.40
2022-11-29T17:56:49.597Z,7.70
2022-11-29T17:59:16.723Z,7.50
2022-11-29T18:01:49.587Z,7.40
2022-11-29T18:04:16.642Z,7.40
2022-11-29T18:06:43.713Z,7.50
2022-11-29T18:09:11.145Z,7.40
2022-11-29T18:11:48.734Z,7.40
2022-11-29T18:14:23.499Z,7.30
2022-11-29T18:16:51.208Z,7.40
2022-11-29T18:19:20.353Z,7.30
2022-11-29T18:21:49.154Z,7.30
2022-11-29T18:24:16.577Z,7.30
2022-11-29T18:26:43.895Z,7.40
2022-11-29T18:29:11.314Z,7.30
2022-11-29T18:31:41.122Z,7.30
2022-11-29T18:34:09.997Z,7.30
2022-11-29T18:36:45.589Z,7.30
2022-11-29T18:39:15.143Z,7.30
2022-11-29T18:41:44.235Z,7.40
2022-11-29T18:44:13.912Z,7.30
2022-11-29T18:46:43.142Z,7.30
2022-11-29T18:49:12.725Z,7.20
2022-11-29T18:51:41.124Z,7.20
2022-11-29T18:54:08.691Z,7.20
2022-11-29T18:56:36.550Z,7.20
2022-11-29T18:59:07.201Z,7.20
2022-11-29T19:01:37.839Z,7.20
2022-11-29T19:04:05.232Z,7.30
2022-11-29T19:06:39.458Z,7.20
2022-11-29T19:09:11.580Z,7.20
2022-11-29T19:11:38.873Z,7.20
2022-11-29T19:14:11.587Z,7.20
2022-11-29T19:16:43.767Z,7.20
2022-11-29T19:19:11.446Z,7.20
2022-11-29T19:21:39.995Z,7.10
2022-11-29T19:24:13.767Z,7.10
2022-11-29T19:26:42.970Z,7.10
2022-11-29T19:29:10.091Z,7.30
2022-11-29T19:31:39.414Z,7.10
2022-11-29T19:34:06.630Z,7.10
2022-11-29T19:36:33.658Z,7.10
2022-11-29T19:39:01.713Z,7.10
2022-11-29T19:41:33.961Z,7.10
2022-11-29T19:44:04.792Z,7.00
2022-11-29T19:46:40.575Z,7.10
2022-11-29T19:49:08.589Z,7.00
2022-11-29T19:51:36.113Z,7.00
2022-11-29T19:54:05.477Z,7.00
2022-11-29T19:56:33.094Z,7.00
2022-11-29T19:59:00.203Z,7.00
2022-11-29T20:01:37.840Z,7.00
2022-11-29T20:04:06.696Z,7.00
2022-11-29T20:06:33.518Z,7.00
2022-11-29T20:09:00.463Z,6.90
2022-11-29T20:11:27.338Z,7.00
2022-11-29T20:14:02.750Z,7.00
2022-11-29T20:16:30.991Z,7.00
2022-11-29T20:18:58.673Z,7.00
2022-11-29T20:21:28.410Z,7.00
2022-11-29T20:23:57.535Z,7.00
2022-11-29T20:26:25.756Z,7.10
2022-11-29T20:28:52.852Z,7.00
2022-11-29T20:31:22.829Z,7.20
2022-11-29T20:33:52.411Z,6.90
2022-11-29T20:36:40.005Z,7.00
2022-11-29T20:39:15.740Z,7.00
2022-11-29T20:42:20.428Z,6.90
2022-11-29T20:44:56.184Z,7.00
2022-11-29T20:47:26.107Z,7.00
2022-11-29T20:49:53.309Z,7.00
2022-11-29T20:52:36.233Z,7.00
2022-11-29T20:55:03.194Z,7.00
2022-11-29T20:57:30.169Z,7.00
2022-11-29T20:59:57.055Z,7.00
2022-11-29T21:02:24.758Z,7.00
2022-11-29T21:04:51.928Z,7.00
2022-11-29T21:07:18.961Z,7.00
2022-11-29T21:09:46.082Z,7.00
2022-11-29T21:12:13.501Z,7.00
2022-11-29T21:14:40.740Z,7.00
2022-11-29T21:17:08.935Z,7.00
2022-11-29T21:19:36.444Z,7.00
2022-11-29T21:22:10.193Z,7.00
2022-11-29T21:24:48.334Z,7.00
2022-11-29T21:27:23.618Z,7.00
2022-11-29T21:29:50.834Z,7.00
2022-11-29T21:32:26.609Z,7.00
2022-11-29T21:34:53.580Z,7.00
2022-11-29T21:37:25.035Z,7.00
2022-11-29T21:39:53.283Z,7.00
2022-11-29T21:42:20.240Z,7.00
2022-11-29T21:44:47.538Z,7.00
2022-11-29T21:47:17.599Z,7.00
2022-11-29T21:49:45.053Z,7.20
2022-11-29T21:52:11.920Z,7.00
2022-11-29T21:54:39.379Z,7.00
2022-11-29T21:57:06.289Z,7.00
2022-11-29T21:59:33.086Z,7.00
2022-11-29T22:02:00.078Z,7.00
2022-11-29T22:04:27.051Z,7.00
2022-11-29T22:06:53.954Z,6.90
2022-11-29T22:09:20.799Z,6.90
2022-11-29T22:11:47.903Z,6.90
2022-11-29T22:14:17.095Z,6.90
2022-11-29T22:16:55.833Z,6.90
2022-11-29T22:19:29.684Z,6.90
2022-11-29T22:22:02.328Z,6.90
2022-11-29T22:24:32.164Z,6.80
2022-11-29T22:26:59.225Z,6.80
2022-11-29T22:29:26.214Z,6.80
2022-11-29T22:31:55.270Z,6.80
2022-11-29T22:34:25.081Z,6.80
2022-11-29T22:36:52.020Z,6.80
2022-11-29T22:39:18.909Z,6.70
2022-11-29T22:41:52.247Z,6.70
2022-11-29T22:44:20.982Z,6.80
2022-11-29T22:46:47.894Z,6.80
2022-11-29T22:49:14.885Z,6.80
2022-11-29T22:51:41.752Z,6.80
2022-11-29T22:54:10.601Z,6.80
2022-11-29T22:56:39.856Z,6.90
2022-11-29T22:59:07.016Z,6.90
2022-11-29T23:01:36.150Z,6.80
2022-11-29T23:04:06.096Z,6.80
2022-11-29T23:06:38.474Z,6.90
2022-11-29T23:09:12.057Z,6.80
2022-11-29T23:11:39.045Z,6.80
2022-11-29T23:14:05.835Z,6.90
2022-11-29T23:16:33.086Z,6.80
2022-11-29T23:19:00.924Z,6.80
2022-11-29T23:21:32.063Z,6.80
2022-11-29T23:24:00.925Z,7.00
2022-11-29T23:26:31.446Z,6.80
2022-11-29T23:28:58.660Z,6.80
2022-11-29T23:31:25.864Z,6.90
2022-11-29T23:33:52.809Z,6.80
2022-11-29T23:36:20.388Z,6.80
2022-11-29T23:38:48.662Z,6.80
2022-11-29T23:41:15.568Z,6.90
2022-11-29T23:43:42.893Z,6.80
2022-11-29T23:46:14.011Z,6.80
2022-11-29T23:48:41.338Z,6.80
2022-11-29T23:51:08.459Z,6.80
2022-11-29T23:53:35.520Z,6.80
2022-11-29T23:56:13.948Z,6.80
2022-11-29T23:58:41.628Z,6.80
